Time;durP1;ratioP1;P1;durP2;ratioP2;P2;SDS_P1;SDS_P2;PMS_P1;PMS_P2;Temp;Humidity;BMP_temperature;BMP_pressure;BME280_temperature;BME280_humidity;BME280_pressure;Samples;Min_cycle;Max_cycle;Signal;HPM_P1;HPM_P2
2023/10/25 00:01:40;;;;;;;11.80;5.10;;;;;;;11.90;68.21;98081.14;105746;1254;73686;-23
2023/10/25 00:04:07;;;;;;;9.90;4.90;;;;;;;11.79;68.61;98078.73;105831;1254;74808;-23
2023/10/25 00:06:34;;;;;;;11.20;4.80;;;;;;;11.71;68.82;98075.73;105625;1253;73144;-23
2023/10/25 00:09:02;;;;;;;9.20;4.60;;;;;;;11.66;69.25;98073.56;105648;1254;61929;-23
2023/10/25 00:11:29;;;;;;;8.30;4.10;;;;;;;12.12;68.12;98068.40;105552;1255;61163;-23
2023/10/25 00:13:55;;;;;;;10.80;4.40;;;;;;;12.48;66.81;98064.02;105756;1253;74217;-24
2023/10/25 00:16:22;;;;;;;6.50;3.90;;;;;;;12.51;66.42;98061.95;105542;1254;74327;-23
2023/10/25 00:18:49;;;;;;;11.90;4.60;;;;;;;12.40;66.73;98058.61;105858;1254;72656;-24
2023/10/25 00:21:16;;;;;;;6.50;4.80;;;;;;;12.23;67.11;98055.71;105357;1259;61119;-23
2023/10/25 00:23:43;;;;;;;9.50;4.90;;;;;;;12.06;67.50;98052.86;105579;1256;61169;-23
2023/10/25 00:26:10;;;;;;;7.90;4.70;;;;;;;11.93;67.93;98041.97;105610;1254;73716;-23
2023/10/25 00:28:37;;;;;;;10.90;5.40;;;;;;;11.81;68.51;98038.41;105464;1254;74121;-23
2023/10/25 00:31:04;;;;;;;10.40;5.60;;;;;;;11.71;68.84;98038.09;105843;1254;73015;-24
2023/10/25 00:33:31;;;;;;;8.10;4.40;;;;;;;11.66;69.06;98032.73;105681;1257;61869;-23
2023/10/25 00:35:58;;;;;;;8.90;5.00;;;;;;;12.10;68.31;98031.23;105869;1257;61141;-23
2023/10/25 00:38:25;;;;;;;10.50;5.00;;;;;;;12.51;66.71;98023.54;105778;1257;73737;-23
2023/10/25 00:40:52;;;;;;;9.20;4.70;;;;;;;12.56;66.13;98022.66;105851;1256;74297;-23
2023/10/25 00:43:20;;;;;;;10.20;5.20;;;;;;;12.45;66.31;98017.23;105698;1253;72455;-23
2023/10/25 00:46:14;;;;;;;14.60;5.30;;;;;;;12.28;66.60;98015.34;105590;1261;61173;-23
2023/10/25 00:48:44;;;;;;;10.30;5.90;;;;;;;12.09;67.31;98011.48;105689;1253;61196;-23
2023/10/25 00:51:11;;;;;;;9.50;4.70;;;;;;;11.95;67.94;98012.20;105647;1254;75439;-23
2023/10/25 00:53:40;;;;;;;9.80;5.20;;;;;;;11.84;68.14;98008.00;105888;1254;72125;-23
2023/10/25 00:56:08;;;;;;;7.50;4.50;;;;;;;11.74;68.22;98001.16;105711;1258;72474;-23
2023/10/25 00:58:35;;;;;;;11.70;6.10;;;;;;;11.65;68.85;98001.95;105969;1254;61055;-23
2023/10/25 01:01:02;;;;;;;9.80;4.90;;;;;;;11.64;68.97;98002.52;105871;1257;61124;-23
2023/10/25 01:03:29;;;;;;;9.00;5.00;;;;;;;12.13;68.09;97997.36;103312;1253;3196388;-23
2023/10/25 01:05:57;;;;;;;9.10;4.90;;;;;;;12.46;66.70;97996.21;105794;1254;74308;-23
2023/10/25 01:08:24;;;;;;;8.10;4.30;;;;;;;12.46;66.23;97996.77;105832;1254;72741;-23
2023/10/25 01:10:52;;;;;;;11.20;5.60;;;;;;;12.33;66.57;97991.42;105512;1254;61253;-23
2023/10/25 01:13:19;;;;;;;8.00;4.90;;;;;;;12.16;66.95;97987.69;105524;1254;61154;-23
2023/10/25 01:15:46;;;;;;;9.40;5.60;;;;;;;11.99;67.60;97979.98;105624;1254;73701;-23
2023/10/25 01:18:14;;;;;;;10.50;5.40;;;;;;;11.86;67.94;97980.63;105798;1254;71983;-23
2023/10/25 01:20:42;;;;;;;10.50;5.60;;;;;;;11.75;68.31;97980.04;105786;1254;71315;-23
2023/10/25 01:23:09;;;;;;;8.90;5.60;;;;;;;11.65;68.49;97968.92;105438;1254;61061;-23
2023/10/25 01:25:37;;;;;;;8.50;4.80;;;;;;;11.60;68.99;97969.52;105648;1257;61160;-23
2023/10/25 01:28:05;;;;;;;8.30;4.70;;;;;;;12.08;68.00;97961.83;105802;1254;73777;-23
2023/10/25 01:30:32;;;;;;;9.20;5.30;;;;;;;12.47;66.53;97963.31;105895;1254;74674;-23
2023/10/25 01:32:59;;;;;;;11.30;5.50;;;;;;;12.54;65.85;97964.07;105703;1254;72652;-23
2023/10/25 01:35:26;;;;;;;10.80;5.60;;;;;;;12.44;66.03;97956.73;105695;1257;61023;-23
2023/10/25 01:37:54;;;;;;;10.00;5.20;;;;;;;12.25;66.47;97955.04;105634;1256;61124;-23
2023/10/25 01:40:21;;;;;;;10.30;5.70;;;;;;;12.08;67.03;97961.73;105706;1254;73861;-23
2023/10/25 01:42:51;;;;;;;8.50;5.30;;;;;;;11.94;67.50;97966.23;105933;1254;74398;-23
2023/10/25 01:45:18;;;;;;;11.60;6.00;;;;;;;11.82;68.09;97963.66;105670;1254;74125;-22
2023/10/25 01:47:45;;;;;;;8.70;4.90;;;;;;;11.71;68.50;97962.48;105717;1256;61153;-23
2023/10/25 01:50:12;;;;;;;10.90;6.40;;;;;;;11.61;68.79;97961.96;105886;1257;61109;-23
2023/10/25 01:52:39;;;;;;;8.70;4.90;;;;;;;11.57;69.34;97958.24;105705;1254;73654;-23
2023/10/25 01:55:07;;;;;;;9.90;4.70;;;;;;;12.07;68.61;97965.32;105751;1256;74239;-23
2023/10/25 01:57:34;;;;;;;11.20;5.50;;;;;;;12.45;67.09;97964.98;105515;1259;72681;-23
2023/10/25 02:00:06;;;;;;;9.90;5.60;;;;;;;12.48;66.89;97963.21;105723;1254;61147;-23
2023/10/25 02:02:40;;;;;;;10.50;5.50;;;;;;;12.33;66.92;97959.22;105872;1254;61134;-23
2023/10/25 02:05:07;;;;;;;10.10;5.70;;;;;;;12.15;67.37;97954.52;105690;1254;73687;-23
2023/10/25 02:07:34;;;;;;;8.70;5.90;;;;;;;11.98;67.94;97950.39;105806;1254;74357;-23
2023/10/25 02:10:03;;;;;;;10.40;5.90;;;;;;;11.83;68.49;97946.59;105889;1254;72721;-23
2023/10/25 02:12:30;;;;;;;12.10;6.00;;;;;;;11.68;68.96;97941.50;105655;1258;61198;-23
2023/10/25 02:14:56;;;;;;;13.80;6.40;;;;;;;11.56;69.16;97937.16;105579;1260;61067;-23
2023/10/25 02:17:23;;;;;;;9.00;5.20;;;;;;;11.50;69.62;97934.08;105606;1254;73772;-23
2023/10/25 02:19:50;;;;;;;10.30;5.80;;;;;;;11.99;69.08;97927.64;105747;1254;74781;-23
2023/10/25 02:22:17;;;;;;;10.30;5.60;;;;;;;12.45;67.41;97921.96;105750;1253;72595;-23
2023/10/25 02:24:44;;;;;;;9.20;5.80;;;;;;;12.51;66.81;97917.33;105625;1254;61021;-23
2023/10/25 02:29:46;;;;;;;10.90;6.40;;;;;;;12.26;67.47;97906.29;102580;1293;600940;-21
2023/10/25 02:32:14;;;;;;;11.50;5.70;;;;;;;12.04;68.33;97905.92;104894;1269;61148;-22
2023/10/25 02:34:42;;;;;;;8.50;5.20;;;;;;;11.88;68.54;97901.98;104859;1266;61095;-21
2023/10/25 02:37:10;;;;;;;11.10;5.70;;;;;;;11.72;69.12;97893.73;104809;1272;72201;-21
2023/10/25 02:39:37;;;;;;;11.50;5.90;;;;;;;11.60;69.80;97890.86;105092;1269;74259;-21
2023/10/25 02:49:50;;;;;;;11.10;5.60;;;;;;;12.47;67.86;97886.75;103037;1285;600182;-22
2023/10/25 02:52:17;;;;;;;9.00;5.70;;;;;;;12.30;68.06;97882.64;104813;1268;61187;-22
2023/10/25 02:54:45;;;;;;;9.60;6.20;;;;;;;12.12;68.99;97878.55;104812;1271;61221;-21
2023/10/25 02:57:13;;;;;;;10.90;5.30;;;;;;;11.91;69.83;97875.66;104780;1267;71027;-21
2023/10/25 02:59:41;;;;;;;7.80;5.60;;;;;;;11.74;70.90;97872.73;104843;1270;74297;-21
2023/10/25 03:02:10;;;;;;;15.60;6.20;;;;;;;11.56;71.78;97866.54;104778;1269;72781;-21
2023/10/25 03:04:37;;;;;;;8.30;4.80;;;;;;;11.44;73.00;97865.15;102417;1267;3299830;-21
2023/10/25 03:07:05;;;;;;;12.30;5.50;;;;;;;11.90;72.72;97863.05;104873;1269;61171;-22
2023/10/25 03:17:15;;;;;;;9.80;5.50;;;;;;;11.96;72.10;97832.80;102651;1292;600346;-22
2023/10/25 03:19:42;;;;;;;10.70;5.90;;;;;;;11.72;72.65;97829.47;104871;1266;61193;-22
2023/10/25 03:22:10;;;;;;;9.60;5.20;;;;;;;11.52;73.23;97824.56;104788;1266;61271;-22
2023/10/25 03:24:38;;;;;;;11.00;5.30;;;;;;;11.39;73.64;97823.80;104785;1264;70930;-21
2023/10/25 03:34:44;;;;;;;6.60;4.70;;;;;;;11.93;72.83;97807.27;102696;1291;599949;-21
2023/10/25 03:37:13;;;;;;;11.50;5.70;;;;;;;11.66;73.55;97803.41;104860;1267;61068;-22
2023/10/25 03:39:42;;;;;;;11.30;6.00;;;;;;;11.45;74.86;97802.40;104873;1267;61065;-21
2023/10/25 03:42:10;;;;;;;10.20;5.00;;;;;;;11.29;75.85;97798.08;104781;1265;71091;-22
2023/10/25 03:44:38;;;;;;;9.80;5.30;;;;;;;11.61;75.68;97798.04;104733;1267;73209;-22
2023/10/25 03:54:44;;;;;;;9.40;5.90;;;;;;;11.46;76.29;97805.23;102736;1293;599805;-22
2023/10/25 03:57:12;;;;;;;6.40;4.00;;;;;;;11.24;77.63;97807.52;104796;1271;61223;-22
2023/10/25 03:59:40;;;;;;;10.50;5.80;;;;;;;11.52;77.93;97804.36;104877;1269;61074;-22
2023/10/25 04:02:08;;;;;;;10.60;5.40;;;;;;;11.83;77.05;97798.89;104897;1271;72220;-22
2023/10/25 04:04:35;;;;;;;12.00;6.20;;;;;;;11.77;77.22;97795.73;104812;1269;74299;-22
2023/10/25 04:07:03;;;;;;;9.80;6.20;;;;;;;11.56;77.72;97787.80;105234;1265;72655;-22
2023/10/25 04:09:31;;;;;;;10.50;6.10;;;;;;;11.33;78.55;97783.99;103216;1263;3116218;-24
2023/10/25 04:11:59;;;;;;;13.90;5.20;;;;;;;11.12;80.38;97783.34;105478;1263;61183;-25
2023/10/25 04:14:26;;;;;;;10.10;5.40;;;;;;;11.46;80.20;97780.70;105253;1257;72190;-24
2023/10/25 04:16:54;;;;;;;8.80;6.50;;;;;;;11.81;79.14;97776.83;105272;1263;72921;-22
2023/10/25 04:26:56;;;;;;;8.40;4.30;;;;;;;11.13;82.24;97763.96;102732;1290;599860;-24
2023/10/25 04:29:23;;;;;;;9.10;4.90;;;;;;;11.49;81.93;97757.23;104835;1264;61078;-24
2023/10/25 04:39:31;;;;;;;10.10;6.60;;;;;;;11.24;82.75;97747.57;102678;1292;600103;-23
2023/10/25 04:41:59;;;;;;;7.30;4.40;;;;;;;11.05;83.86;97742.23;104895;1270;61711;-23
2023/10/25 04:44:27;;;;;;;8.40;5.70;;;;;;;11.43;83.59;97736.05;104777;1264;61124;-23
2023/10/25 04:46:55;;;;;;;9.40;5.20;;;;;;;11.66;82.20;97730.15;104891;1269;72296;-24
2023/10/25 04:49:24;;;;;;;10.40;5.50;;;;;;;11.55;82.35;97729.34;104922;1270;74399;-23
2023/10/25 04:51:52;;;;;;;8.60;6.10;;;;;;;11.33;82.61;97724.72;104787;1274;72365;-23
2023/10/25 04:54:20;;;;;;;12.70;5.20;;;;;;;11.10;84.18;97718.77;102764;1264;3197042;-23
2023/10/25 04:56:47;;;;;;;9.10;5.60;;;;;;;11.38;84.25;97712.02;105086;1268;61118;-23
2023/10/25 05:07:03;;;;;;;8.10;5.10;;;;;;;11.12;85.53;97689.00;102550;1292;600268;-22
2023/10/25 05:09:32;;;;;;;6.80;5.60;;;;;;;11.43;85.29;97682.66;104829;1270;61197;-22
2023/10/25 05:12:03;;;;;;;9.10;5.40;;;;;;;11.62;84.21;97678.07;104686;1272;61187;-22
2023/10/25 05:22:11;;;;;;;8.50;5.80;;;;;;;11.67;85.38;97678.55;102756;1294;600181;-23
2023/10/25 05:24:39;;;;;;;8.40;5.40;;;;;;;11.90;84.07;97677.48;104812;1272;61197;-22
2023/10/25 05:27:07;;;;;;;10.80;5.90;;;;;;;11.80;83.83;97679.37;104903;1269;61187;-23
2023/10/25 05:37:15;;;;;;;9.20;5.30;;;;;;;12.05;84.07;97669.26;102646;1292;599940;-22
2023/10/25 05:39:44;;;;;;;9.70;5.80;;;;;;;11.94;83.62;97670.29;104868;1272;61155;-22
2023/10/25 05:42:14;;;;;;;9.00;6.10;;;;;;;11.73;84.14;97666.61;104859;1267;61193;-22
2023/10/25 05:44:41;;;;;;;6.80;4.80;;;;;;;11.52;84.81;97671.60;104854;1266;72539;-22
2023/10/25 05:47:09;;;;;;;8.10;5.30;;;;;;;11.78;85.15;97669.34;104893;1266;74430;-22
2023/10/25 05:49:37;;;;;;;10.10;5.60;;;;;;;12.03;84.45;97668.77;104809;1266;72679;-22
2023/10/25 05:52:07;;;;;;;8.30;5.50;;;;;;;11.97;84.03;97671.35;102865;1263;61189;-22
2023/10/25 05:54:35;;;;;;;10.30;6.30;;;;;;;11.77;84.73;97667.42;105068;1264;61141;-22
2023/10/25 06:05:08;;;;;;;9.70;6.70;;;;;;;12.29;84.30;97654.98;102532;1290;616157;-23
2023/10/25 06:07:39;;;;;;;9.40;6.20;;;;;;;12.02;84.60;97649.39;104877;1264;61133;-23
2023/10/25 06:10:07;;;;;;;7.80;4.70;;;;;;;11.83;85.62;97642.14;105185;1268;61193;-23
2023/10/25 06:12:34;;;;;;;13.30;6.90;;;;;;;12.17;85.85;97641.05;104848;1267;70897;-23
2023/10/25 06:15:02;;;;;;;10.00;5.90;;;;;;;12.44;84.63;97630.17;105008;1267;74447;-23
2023/10/25 06:17:29;;;;;;;10.60;5.80;;;;;;;12.41;84.03;97626.33;102671;1267;3217899;-22
2023/10/25 06:19:56;;;;;;;11.00;6.00;;;;;;;12.23;84.59;97622.77;104833;1263;61116;-22
2023/10/25 06:22:22;;;;;;;7.60;4.40;;;;;;;12.01;85.25;97618.02;105195;1263;61138;-22
2023/10/25 06:24:49;;;;;;;9.60;5.90;;;;;;;12.30;85.89;97614.84;105236;1263;72214;-23
2023/10/25 06:27:16;;;;;;;7.70;5.60;;;;;;;12.65;84.52;97614.30;105198;1263;74314;-22
2023/10/25 06:29:43;;;;;;;8.10;5.60;;;;;;;12.63;84.07;97610.67;105206;1264;71703;-22
2023/10/25 06:32:10;;;;;;;9.90;6.40;;;;;;;12.45;84.32;97609.97;105191;1263;61137;-23
2023/10/25 06:34:37;;;;;;;8.80;5.90;;;;;;;12.25;85.30;97612.98;105210;1267;61170;-22
2023/10/25 06:37:06;;;;;;;8.80;5.80;;;;;;;12.53;85.36;97609.52;105212;1263;73026;-22
2023/10/25 06:39:33;;;;;;;9.80;5.60;;;;;;;12.79;84.38;97604.52;104823;1264;74720;-23
2023/10/25 06:42:00;;;;;;;8.10;6.00;;;;;;;12.74;84.13;97602.66;105201;1263;71675;-22
2023/10/25 06:44:29;;;;;;;11.50;6.40;;;;;;;12.56;84.37;97605.59;105251;1263;61097;-23
2023/10/25 06:46:57;;;;;;;9.00;4.60;;;;;;;12.38;85.40;97608.23;104909;1263;61179;-23
2023/10/25 06:49:24;;;;;;;9.30;5.60;;;;;;;12.69;85.48;97604.95;104864;1263;73008;-22
2023/10/25 06:51:51;;;;;;;13.10;5.70;;;;;;;12.99;84.31;97600.02;105230;1267;74349;-24
2023/10/25 06:54:18;;;;;;;8.00;5.70;;;;;;;12.93;84.22;97597.62;105141;1267;72506;-23
2023/10/25 06:56:45;;;;;;;9.60;5.80;;;;;;;12.72;84.42;97596.24;105061;1264;61074;-23
2023/10/25 06:59:13;;;;;;;8.60;5.70;;;;;;;12.51;85.41;97592.57;105170;1267;61162;-23
2023/10/25 07:01:43;;;;;;;10.10;5.30;;;;;;;12.80;85.89;97588.73;104879;1270;73024;-23
2023/10/25 07:04:16;;;;;;;9.00;5.80;;;;;;;13.07;84.80;97590.86;104864;1264;74014;-23
2023/10/25 07:06:45;;;;;;;8.70;5.60;;;;;;;13.04;84.48;97586.35;104878;1264;72713;-23
2023/10/25 07:09:14;;;;;;;9.00;6.10;;;;;;;12.84;85.10;97586.63;105213;1263;61067;-24
2023/10/25 07:11:40;;;;;;;6.90;4.90;;;;;;;12.63;85.74;97580.86;104851;1270;61135;-23
2023/10/25 07:14:07;;;;;;;6.60;4.80;;;;;;;12.97;86.15;97575.83;105191;1263;73000;-23
2023/10/25 07:16:34;;;;;;;8.80;6.10;;;;;;;13.29;84.69;97567.66;105176;1264;75157;-22
2023/10/25 07:19:01;;;;;;;9.20;6.20;;;;;;;13.20;84.57;97563.61;104987;1265;71849;-23
2023/10/25 07:21:29;;;;;;;8.70;6.40;;;;;;;13.00;85.03;97561.73;105234;1263;61100;-22
2023/10/25 07:23:56;;;;;;;7.10;4.40;;;;;;;12.81;85.87;97561.79;105096;1267;61134;-22
2023/10/25 07:26:22;;;;;;;11.70;5.60;;;;;;;13.13;86.27;97554.04;105090;1263;73014;-22
2023/10/25 07:28:49;;;;;;;8.70;5.30;;;;;;;13.50;84.93;97549.11;105232;1263;74374;-22
2023/10/25 07:31:17;;;;;;;8.00;5.30;;;;;;;13.48;84.80;97544.07;105174;1263;71495;-22
2023/10/25 07:33:44;;;;;;;9.80;5.80;;;;;;;13.26;84.80;97542.21;104774;1272;61049;-22
2023/10/25 07:36:11;;;;;;;8.50;5.40;;;;;;;13.01;85.74;97536.86;105060;1264;61266;-22
2023/10/25 07:38:38;;;;;;;7.30;4.10;;;;;;;13.08;86.61;97528.80;104869;1264;73009;-23
2023/10/25 07:41:05;;;;;;;6.80;4.50;;;;;;;13.39;85.88;97526.11;104906;1263;74171;-23
2023/10/25 07:43:31;;;;;;;7.20;4.70;;;;;;;13.41;85.49;97525.66;104909;1267;72684;-23
2023/10/25 07:45:58;;;;;;;7.10;5.60;;;;;;;13.21;85.77;97525.17;104516;1264;61147;-22
2023/10/25 07:48:27;;;;;;;5.40;4.40;;;;;;;13.03;86.52;97526.92;104995;1268;61167;-23
2023/10/25 07:50:54;;;;;;;5.80;4.90;;;;;;;13.35;86.64;97518.60;105186;1257;73775;-23
2023/10/25 07:53:22;;;;;;;6.10;4.70;;;;;;;13.63;85.50;97517.40;105186;1265;74328;-23
2023/10/25 07:55:50;;;;;;;8.70;4.90;;;;;;;13.57;84.95;97510.91;105164;1260;72645;-22
2023/10/25 07:58:37;;;;;;;8.90;4.70;;;;;;;13.32;85.53;97509.08;105326;1257;61099;-24
2023/10/25 08:01:04;;;;;;;8.50;4.10;;;;;;;13.13;86.57;97508.20;105553;1263;61212;-23
2023/10/25 08:03:31;;;;;;;6.90;3.90;;;;;;;13.43;86.37;97499.33;105251;1258;73028;-23
2023/10/25 08:05:58;;;;;;;4.50;4.10;;;;;;;13.68;85.90;97491.68;105068;1258;73119;-23
2023/10/25 08:08:25;;;;;;;5.30;3.50;;;;;;;13.62;85.26;97484.50;105331;1258;72665;-23
2023/10/25 08:11:05;;;;;;;6.80;4.30;;;;;;;13.40;85.97;97487.43;105514;1257;61163;-23
2023/10/25 08:13:33;;;;;;;5.40;3.80;;;;;;;13.19;87.05;97488.64;105183;1257;61058;-23
2023/10/25 08:16:01;;;;;;;7.20;3.60;;;;;;;13.59;86.93;97488.00;105216;1257;73845;-23
2023/10/25 08:18:29;;;;;;;6.10;3.10;;;;;;;13.89;85.63;97490.95;105250;1258;74428;-23
2023/10/25 08:20:57;;;;;;;4.80;4.20;;;;;;;13.81;85.16;97484.88;105286;1257;71483;-23
2023/10/25 08:23:28;;;;;;;5.80;3.60;;;;;;;13.60;85.78;97480.25;105607;1259;61109;-23
2023/10/25 08:26:00;;;;;;;4.90;3.50;;;;;;;13.40;86.74;97478.73;105284;1256;61084;-23
2023/10/25 08:28:28;;;;;;;4.60;3.00;;;;;;;13.74;87.03;97475.17;105306;1258;73179;-24
2023/10/25 08:30:55;;;;;;;3.80;3.40;;;;;;;14.02;85.46;97475.41;105476;1258;74477;-23
2023/10/25 08:33:22;;;;;;;6.50;3.90;;;;;;;13.96;85.03;97475.50;105408;1257;73924;-24
2023/10/25 08:35:49;;;;;;;9.10;3.80;;;;;;;13.74;86.00;97477.99;105203;1257;60984;-23
2023/10/25 08:38:16;;;;;;;4.10;2.70;;;;;;;13.58;86.65;97474.40;105161;1263;61270;-24
2023/10/25 08:40:44;;;;;;;5.10;3.10;;;;;;;13.89;87.19;97473.49;105157;1257;73303;-23
2023/10/25 08:43:11;;;;;;;5.40;3.80;;;;;;;14.14;86.33;97471.91;105184;1262;74352;-23
2023/10/25 08:45:38;;;;;;;8.00;4.30;;;;;;;14.11;85.77;97472.48;105232;1257;71425;-24
2023/10/25 08:48:05;;;;;;;5.90;4.60;;;;;;;13.95;86.62;97474.91;105117;1257;61148;-23
2023/10/25 08:50:32;;;;;;;6.00;4.50;;;;;;;13.84;87.64;97471.42;105512;1261;61202;-23
2023/10/25 08:53:00;;;;;;;6.30;4.30;;;;;;;14.28;87.91;97462.38;105410;1258;73210;-23
2023/10/25 08:55:28;;;;;;;5.00;4.30;;;;;;;14.71;86.05;97458.81;105447;1257;74281;-25
2023/10/25 08:57:56;;;;;;;5.40;3.60;;;;;;;14.71;85.43;97460.83;105563;1257;72288;-23
2023/10/25 09:00:24;;;;;;;6.40;3.80;;;;;;;14.53;85.52;97458.77;105310;1257;61155;-23
2023/10/25 09:03:32;;;;;;;3.40;2.30;;;;;;;14.33;86.42;97456.02;105260;1264;61096;-24
2023/10/25 09:06:01;;;;;;;6.50;3.50;;;;;;;14.72;85.98;97452.20;105507;1257;73859;-23
2023/10/25 09:08:30;;;;;;;5.30;3.70;;;;;;;14.85;85.10;97450.56;105317;1263;73890;-23
2023/10/25 09:11:00;;;;;;;4.20;3.40;;;;;;;14.70;85.26;97441.67;105301;1257;70853;-23
2023/10/25 09:13:31;;;;;;;4.60;3.50;;;;;;;14.45;86.06;97441.80;105264;1264;61697;-23
2023/10/25 09:16:08;;;;;;;5.50;2.90;;;;;;;14.41;87.03;97434.02;105485;1263;61143;-24
2023/10/25 09:18:37;;;;;;;4.40;3.50;;;;;;;14.84;85.55;97427.67;105190;1258;73662;-23
2023/10/25 09:21:05;;;;;;;5.20;3.10;;;;;;;14.83;85.03;97424.35;105165;1258;73416;-23
2023/10/25 09:23:39;;;;;;;4.50;3.10;;;;;;;14.65;86.02;97425.34;105235;1257;72628;-23
2023/10/25 09:26:14;;;;;;;5.80;3.00;;;;;;;14.47;86.79;97420.98;105164;1257;61869;-24
2023/10/25 09:28:42;;;;;;;8.60;4.20;;;;;;;14.78;86.79;97421.21;105045;1257;61202;-24
2023/10/25 09:31:23;;;;;;;8.40;4.50;;;;;;;14.97;85.36;97416.05;105473;1257;73003;-23
2023/10/25 09:33:50;;;;;;;7.80;4.40;;;;;;;14.84;85.68;97411.66;105404;1263;75129;-24
2023/10/25 09:36:20;;;;;;;8.90;3.30;;;;;;;14.62;86.70;97410.53;105277;1257;73439;-24
2023/10/25 09:38:49;;;;;;;6.30;3.10;;;;;;;14.67;87.12;97407.17;105268;1257;61151;-24
2023/10/25 09:41:19;;;;;;;6.40;3.50;;;;;;;14.92;86.76;97406.35;105298;1257;61169;-23
2023/10/25 09:43:48;;;;;;;6.60;2.70;;;;;;;14.89;85.74;97401.29;105440;1263;73777;-23
2023/10/25 09:46:22;;;;;;;8.60;3.50;;;;;;;14.68;86.43;97399.85;105282;1264;73018;-23
2023/10/25 09:48:54;;;;;;;6.10;2.30;;;;;;;14.58;87.25;97394.75;105233;1265;72522;-23
2023/10/25 09:51:28;;;;;;;4.20;2.00;;;;;;;14.99;86.91;97390.48;105265;1257;61460;-23
2023/10/25 09:54:10;;;;;;;7.00;2.40;;;;;;;15.11;86.13;97387.35;105285;1258;61100;-23
2023/10/25 09:56:37;;;;;;;7.20;2.20;;;;;;;14.91;85.98;97381.70;105198;1263;73059;-23
2023/10/25 09:59:06;;;;;;;5.20;2.00;;;;;;;14.64;87.09;97378.66;105626;1257;74417;-23
2023/10/25 10:01:34;;;;;;;4.30;2.10;;;;;;;14.90;86.85;97381.30;105244;1264;72855;-23
2023/10/25 10:04:19;;;;;;;6.00;2.10;;;;;;;15.01;86.32;97367.80;105087;1257;61113;-23
2023/10/25 10:06:54;;;;;;;4.50;2.10;;;;;;;14.88;85.93;97358.64;105204;1262;61061;-23
2023/10/25 10:09:30;;;;;;;4.50;1.80;;;;;;;14.68;86.85;97359.15;105189;1257;72724;-23
2023/10/25 10:12:02;;;;;;;4.90;2.10;;;;;;;15.07;87.27;97364.31;105272;1257;74056;-23
2023/10/25 10:14:37;;;;;;;5.20;2.20;;;;;;;15.32;85.59;97360.81;105308;1257;73214;-23
2023/10/25 10:17:09;;;;;;;4.60;2.40;;;;;;;15.22;85.50;97354.37;105265;1266;61148;-23
2023/10/25 10:19:37;;;;;;;11.60;2.70;;;;;;;15.03;85.77;97344.53;105148;1265;61250;-22
2023/10/25 10:22:05;;;;;;;5.10;1.70;;;;;;;14.83;86.41;97342.77;105332;1257;74641;-23
2023/10/25 10:24:56;;;;;;;4.60;2.00;;;;;;;15.22;86.53;97340.54;105281;1263;74700;-23
2023/10/25 10:27:27;;;;;;;9.40;3.30;;;;;;;15.61;84.85;97329.98;105230;1257;72690;-23
2023/10/25 10:29:55;;;;;;;10.50;4.50;;;;;;;15.55;84.56;97322.70;105190;1257;61086;-23
2023/10/25 10:32:22;;;;;;;10.40;3.90;;;;;;;15.34;84.75;97315.73;105181;1264;61228;-23
2023/10/25 10:34:53;;;;;;;9.70;3.30;;;;;;;15.16;85.33;97308.61;105000;1258;74346;-23
2023/10/25 10:37:22;;;;;;;8.00;3.00;;;;;;;15.47;85.98;97301.58;105576;1259;76001;-23
2023/10/25 10:39:58;;;;;;;8.40;3.40;;;;;;;15.76;84.10;97298.63;105496;1254;73420;-23
2023/10/25 10:42:35;;;;;;;5.60;3.00;;;;;;;15.64;84.15;97292.36;105707;1254;61046;-23
2023/10/25 10:45:08;;;;;;;8.90;3.80;;;;;;;15.38;84.67;97295.64;105633;1259;61175;-23
2023/10/25 10:47:37;;;;;;;7.30;3.40;;;;;;;15.14;85.64;97291.27;105721;1259;74715;-23
2023/10/25 10:50:18;;;;;;;9.80;2.80;;;;;;;15.43;85.83;97283.45;105813;1259;73446;-23
2023/10/25 10:52:46;;;;;;;7.50;3.00;;;;;;;15.62;84.48;97278.12;105664;1254;73445;-23
2023/10/25 10:55:18;;;;;;;4.60;2.40;;;;;;;15.51;84.63;97270.73;105832;1259;61311;-23
2023/10/25 10:57:45;;;;;;;7.80;3.30;;;;;;;15.30;85.40;97269.65;105525;1254;61077;-23
2023/10/25 11:00:32;;;;;;;6.80;3.10;;;;;;;15.11;85.61;97270.24;105645;1254;72829;-23
2023/10/25 11:03:02;;;;;;;7.60;2.90;;;;;;;15.50;86.09;97259.89;105715;1254;74125;-23
2023/10/25 11:05:36;;;;;;;8.80;3.30;;;;;;;15.71;84.70;97252.45;105784;1252;72223;-23
2023/10/25 11:08:07;;;;;;;8.20;3.80;;;;;;;15.62;84.71;97245.75;105673;1254;61065;-23
2023/10/25 11:10:37;;;;;;;;;;;;;;;15.42;85.37;97238.88;105628;1262;61201;-23
2023/10/25 11:13:10;;;;;;;5.30;2.60;;;;;;;15.19;86.43;97235.50;105796;1254;73858;-23
2023/10/25 11:15:38;;;;;;;9.50;2.80;;;;;;;15.48;87.06;97227.58;105297;1262;72659;-23
2023/10/25 11:18:08;;;;;;;6.90;3.30;;;;;;;15.89;85.94;97226.70;105753;1257;72786;-23
2023/10/25 11:20:35;;;;;;;7.60;3.40;;;;;;;15.92;85.36;97227.10;105302;1254;62041;-25
2023/10/25 11:23:04;;;;;;;10.30;3.90;;;;;;;15.78;85.68;97223.86;105804;1252;61237;-23
2023/10/25 11:25:31;;;;;;;7.40;3.40;;;;;;;15.64;86.13;97226.34;105735;1254;72955;-23
2023/10/25 11:27:58;;;;;;;9.70;3.40;;;;;;;15.99;86.40;97225.83;105639;1254;75182;-23
2023/10/25 11:30:25;;;;;;;6.10;3.50;;;;;;;16.35;85.22;97224.94;105892;1256;72839;-23
2023/10/25 11:32:52;;;;;;;9.90;3.90;;;;;;;16.30;84.23;97219.31;105747;1252;61115;-23
2023/10/25 11:35:24;;;;;;;10.80;4.20;;;;;;;16.07;84.66;97221.42;105790;1256;61151;-23
2023/10/25 11:37:52;;;;;;;6.20;2.80;;;;;;;15.88;85.58;97219.11;105490;1254;72946;-23
2023/10/25 11:40:20;;;;;;;7.30;4.00;;;;;;;16.18;85.45;97220.20;105707;1257;74087;-23
2023/10/25 11:42:47;;;;;;;10.70;4.90;;;;;;;16.33;84.13;97214.68;105837;1254;73006;-23
2023/10/25 11:45:17;;;;;;;9.50;4.50;;;;;;;16.22;84.33;97214.56;105859;1254;61061;-23
2023/10/25 11:47:48;;;;;;;7.40;4.80;;;;;;;16.03;84.85;97208.79;105557;1259;61112;-23
2023/10/25 11:50:15;;;;;;;9.70;4.00;;;;;;;15.81;85.88;97207.84;105946;1255;72623;-23
2023/10/25 11:52:42;;;;;;;7.80;4.40;;;;;;;16.15;85.65;97210.27;105987;1254;74437;-23
2023/10/25 11:55:09;;;;;;;8.30;4.30;;;;;;;16.38;84.52;97215.39;105888;1254;72738;-23
2023/10/25 11:57:38;;;;;;;13.20;7.40;;;;;;;16.30;84.04;97212.99;105897;1253;61230;-23
2023/10/25 12:00:10;;;;;;;13.70;8.40;;;;;;;15.97;84.70;97214.41;105667;1252;61198;-23
2023/10/25 12:02:39;;;;;;;9.70;5.20;;;;;;;15.77;85.54;97209.81;105564;1254;73911;-23
2023/10/25 12:05:07;;;;;;;11.00;5.70;;;;;;;16.09;85.46;97204.46;105961;1256;75147;-23
2023/10/25 12:07:34;;;;;;;11.00;5.70;;;;;;;16.22;84.86;97202.53;105918;1254;71390;-23
2023/10/25 12:10:01;;;;;;;7.90;5.10;;;;;;;16.07;85.14;97199.89;105854;1254;61207;-23
2023/10/25 12:12:28;;;;;;;7.70;4.70;;;;;;;15.85;86.05;97200.16;105837;1254;61704;-23
2023/10/25 12:14:55;;;;;;;7.80;3.80;;;;;;;15.66;86.42;97197.52;105914;1251;74403;-23
2023/10/25 12:17:23;;;;;;;10.30;5.20;;;;;;;16.06;86.87;97197.95;105850;1254;75089;-23
2023/10/25 12:19:52;;;;;;;7.80;4.60;;;;;;;16.48;84.57;97197.91;105769;1257;72718;-23
2023/10/25 12:22:19;;;;;;;7.90;4.80;;;;;;;16.44;84.01;97195.90;105826;1254;61163;-23
2023/10/25 12:24:47;;;;;;;11.80;6.50;;;;;;;16.20;84.51;97190.17;105946;1256;61099;-22
2023/10/25 12:27:16;;;;;;;13.80;6.30;;;;;;;15.91;85.09;97190.11;105869;1259;71678;-24
2023/10/25 12:29:44;;;;;;;8.60;4.90;;;;;;;15.79;86.34;97188.59;105902;1254;74739;-23
2023/10/25 12:32:11;;;;;;;11.40;5.90;;;;;;;16.27;86.16;97189.74;105675;1258;73368;-23
2023/10/25 12:34:40;;;;;;;12.60;6.40;;;;;;;16.55;84.58;97189.76;105885;1254;62549;-23
2023/10/25 12:37:08;;;;;;;8.70;5.30;;;;;;;16.39;84.30;97186.66;105888;1255;61167;-23
2023/10/25 12:39:35;;;;;;;9.00;5.60;;;;;;;16.10;84.80;97186.58;105514;1254;74656;-23
2023/10/25 12:42:02;;;;;;;7.80;4.20;;;;;;;15.87;85.92;97183.98;105655;1256;74734;-23
2023/10/25 12:44:30;;;;;;;5.40;4.30;;;;;;;16.18;86.15;97182.19;105563;1256;72486;-23
2023/10/25 12:46:57;;;;;;;6.90;4.50;;;;;;;16.45;84.80;97181.66;105521;1254;61112;-23
2023/10/25 12:49:24;;;;;;;8.10;5.20;;;;;;;16.39;84.65;97180.48;105565;1255;61185;-23